Time;durP1;ratioP1;P1;durP2;ratioP2;P2;SDS_P1;SDS_P2;PMS_P1;PMS_P2;Temp;Humidity;BMP_temperature;BMP_pressure;BME280_temperature;BME280_humidity;BME280_pressure;Samples;Min_cycle;Max_cycle;Signal;HPM_P1;HPM_P2
2023/08/25 00:00:19;;;;;;;;;;;;;;;24.33;56.28;99503.22;4472121;32;33257;-80
2023/08/25 00:02:48;;;;;;;3.47;1.70;;;;;;;24.30;56.68;99514.06;4465571;32;34025;-80
2023/08/25 00:05:17;;;;;;;4.18;1.87;;;;;;;24.31;56.72;99521.03;4462559;32;34476;-81
2023/08/25 00:07:45;;;;;;;3.92;2.00;;;;;;;24.28;56.82;99512.38;4460148;32;32855;-81
2023/08/25 00:10:14;;;;;;;3.92;1.90;;;;;;;24.16;57.31;99497.37;4474884;32;33152;-80
2023/08/25 00:12:43;;;;;;;4.30;2.15;;;;;;;24.12;57.49;99498.53;4473271;32;33984;-80
2023/08/25 00:15:12;;;;;;;3.87;2.05;;;;;;;24.07;57.75;99500.69;4462965;32;33857;-81
2023/08/25 00:17:42;;;;;;;4.05;2.00;;;;;;;24.02;57.83;99489.56;4464105;32;34099;-80
2023/08/25 00:20:12;;;;;;;3.10;1.80;;;;;;;24.13;57.37;99486.97;4474421;32;35196;-81
2023/08/25 00:22:41;;;;;;;4.27;2.57;;;;;;;24.17;57.58;99491.09;4474765;32;34285;-80
2023/08/25 00:25:10;;;;;;;2.17;1.55;;;;;;;23.85;58.84;99480.19;4470223;32;33477;-80
2023/08/25 00:27:39;;;;;;;3.40;1.80;;;;;;;24.04;58.20;99483.19;4463064;32;33030;-80
2023/08/25 00:30:10;;;;;;;2.87;1.70;;;;;;;24.16;57.76;99478.81;4459972;32;33390;-80
2023/08/25 00:32:39;;;;;;;4.15;1.83;;;;;;;24.15;57.44;99484.22;4466833;32;33484;-80
2023/08/25 00:35:09;;;;;;;3.10;1.95;;;;;;;23.96;58.11;99480.22;4469441;32;33718;-80
2023/08/25 00:37:38;;;;;;;3.30;2.03;;;;;;;23.93;58.40;99490.22;4468758;32;33369;-80
2023/08/25 00:40:08;;;;;;;3.87;2.42;;;;;;;23.81;59.37;99498.09;4471835;32;33313;-80
2023/08/25 00:42:37;;;;;;;3.23;1.70;;;;;;;23.89;59.79;99509.94;4471640;32;33434;-80
2023/08/25 00:45:07;;;;;;;2.75;1.70;;;;;;;24.09;57.98;99511.16;4474336;32;33486;-80
2023/08/25 00:47:36;;;;;;;3.30;1.87;;;;;;;24.05;58.13;99507.88;4463461;32;33343;-80
2023/08/25 00:50:09;;;;;;;4.30;2.35;;;;;;;24.00;58.23;99502.91;4475579;31;33175;-80
2023/08/25 00:52:39;;;;;;;2.78;1.85;;;;;;;23.84;59.37;99508.44;4468034;32;34461;-81
2023/08/25 00:55:09;;;;;;;1.85;1.52;;;;;;;23.98;58.47;99506.63;4470855;32;33909;-81
2023/08/25 00:57:38;;;;;;;3.00;1.85;;;;;;;24.03;58.27;99488.59;4475904;32;33473;-80
2023/08/25 01:00:11;;;;;;;4.10;1.92;;;;;;;24.19;57.47;99483.03;4458409;32;33124;-80
2023/08/25 01:02:40;;;;;;;3.22;1.95;;;;;;;23.94;58.41;99471.53;4464589;32;33687;-80
2023/08/25 01:05:10;;;;;;;4.78;2.28;;;;;;;24.04;58.12;99466.44;4465829;32;33697;-81
2023/08/25 01:07:39;;;;;;;4.40;2.22;;;;;;;23.77;58.86;99463.97;4464454;32;33796;-81
2023/08/25 01:10:09;;;;;;;2.65;1.80;;;;;;;23.87;58.41;99464.16;4463301;32;33506;-81
2023/08/25 01:12:47;;;;;;;3.37;2.03;;;;;;;23.66;59.27;99462.06;4463104;32;35600;-80
2023/08/25 01:15:22;;;;;;;3.75;2.05;;;;;;;23.75;59.06;99456.16;4465903;32;33578;-80
2023/08/25 01:17:55;;;;;;;3.90;1.98;;;;;;;23.84;58.74;99454.63;4464940;32;33607;-80
2023/08/25 01:20:26;;;;;;;4.87;2.00;;;;;;;23.81;58.85;99454.84;4481500;32;33035;-80
2023/08/25 01:23:04;;;;;;;3.85;2.00;;;;;;;23.94;58.42;99454.81;4466210;32;34674;-81
2023/08/25 01:25:35;;;;;;;3.72;1.92;;;;;;;23.93;58.39;99459.28;4460318;32;35111;-81
2023/08/25 01:28:06;;;;;;;3.17;1.85;;;;;;;23.88;58.73;99455.28;4461020;32;33843;-81
2023/08/25 01:30:36;;;;;;;3.42;1.95;;;;;;;23.95;58.24;99452.06;4460054;32;33328;-80
2023/08/25 01:33:06;;;;;;;3.20;1.83;;;;;;;23.92;58.41;99462.88;4465176;32;34394;-80
2023/08/25 01:35:48;;;;;;;3.22;2.05;;;;;;;23.93;58.46;99461.09;4462932;32;34491;-80
2023/08/25 01:38:21;;;;;;;2.67;1.52;;;;;;;24.13;57.88;99470.22;4464319;32;34462;-80
2023/08/25 01:40:57;;;;;;;2.60;1.70;;;;;;;23.88;58.76;99479.94;4463046;32;34230;-80
2023/08/25 01:43:30;;;;;;;3.47;1.83;;;;;;;23.93;58.60;99476.97;4461057;32;33671;-80
2023/08/25 01:46:00;;;;;;;4.05;2.00;;;;;;;24.10;58.03;99471.28;4477096;32;34448;-80
2023/08/25 01:48:31;;;;;;;3.70;1.90;;;;;;;24.05;58.21;99473.44;4468474;32;33588;-79
2023/08/25 01:51:00;;;;;;;4.28;2.47;;;;;;;23.94;58.55;99462.75;4473212;32;33417;-80
2023/08/25 01:53:33;;;;;;;4.55;2.08;;;;;;;23.73;59.11;99458.06;4473434;31;34395;-80
2023/08/25 01:56:03;;;;;;;4.00;1.77;;;;;;;23.92;58.56;99459.37;4476895;32;33751;-80
2023/08/25 01:58:33;;;;;;;4.05;2.25;;;;;;;23.83;58.96;99451.13;4461593;32;33943;-81
2023/08/25 02:01:02;;;;;;;5.47;2.20;;;;;;;23.67;59.73;99437.25;4468726;32;33483;-80
2023/08/25 02:03:32;;;;;;;3.22;2.03;;;;;;;23.68;59.78;99438.97;4473450;32;33965;-80
2023/08/25 02:06:01;;;;;;;4.12;2.47;;;;;;;23.59;60.07;99435.16;4470562;32;33831;-80
2023/08/25 02:08:29;;;;;;;3.85;2.37;;;;;;;23.72;59.65;99429.84;4465879;32;33583;-80
2023/08/25 02:10:59;;;;;;;3.75;2.00;;;;;;;23.64;59.84;99427.75;4460564;32;34519;-80
2023/08/25 02:13:29;;;;;;;2.95;2.08;;;;;;;23.68;59.77;99427.50;4460840;32;34606;-80
2023/08/25 02:15:58;;;;;;;3.72;1.98;;;;;;;23.47;60.82;99412.22;4462819;32;33666;-80
2023/08/25 02:18:27;;;;;;;3.22;2.20;;;;;;;23.29;62.01;99413.50;4469772;32;33429;-80
2023/08/25 02:20:56;;;;;;;4.10;2.42;;;;;;;23.50;61.62;99408.50;4466571;32;33016;-80
2023/08/25 02:23:26;;;;;;;4.25;2.17;;;;;;;23.52;61.49;99412.72;4465537;32;33686;-80
2023/08/25 02:25:56;;;;;;;3.50;1.77;;;;;;;23.36;61.60;99407.66;4468514;32;33760;-80
2023/08/25 02:28:25;;;;;;;5.40;2.10;;;;;;;23.19;62.22;99402.72;4461332;32;33425;-80
2023/08/25 02:30:56;;;;;;;4.22;2.12;;;;;;;23.43;61.44;99400.97;4466298;32;33815;-80
2023/08/25 02:33:24;;;;;;;2.95;1.87;;;;;;;23.55;61.06;99398.41;4460770;32;34248;-80
2023/08/25 02:35:55;;;;;;;4.28;2.60;;;;;;;23.74;60.05;99403.28;4460750;32;34755;-80
2023/08/25 02:38:24;;;;;;;3.87;1.87;;;;;;;23.73;60.08;99409.50;4469833;32;34210;-80
2023/08/25 02:40:53;;;;;;;3.15;1.62;;;;;;;23.80;59.37;99411.63;4481342;32;32983;-80
2023/08/25 02:43:22;;;;;;;2.33;1.67;;;;;;;23.82;59.38;99414.16;4460663;32;33544;-80
2023/08/25 02:45:51;;;;;;;4.12;2.03;;;;;;;23.89;59.13;99403.97;4471800;32;34635;-80
2023/08/25 02:48:21;;;;;;;3.83;1.80;;;;;;;23.76;59.76;99404.84;4476765;32;33876;-80
2023/08/25 02:50:50;;;;;;;3.62;1.90;;;;;;;23.96;58.84;99395.44;4466027;32;33339;-80
2023/08/25 02:53:19;;;;;;;5.87;2.65;;;;;;;23.80;59.44;99406.34;4463876;32;35104;-81
2023/08/25 02:55:48;;;;;;;3.78;1.85;;;;;;;23.84;58.74;99425.50;4460914;32;34605;-80
2023/08/25 02:58:17;;;;;;;3.08;1.80;;;;;;;23.96;58.00;99437.84;4472174;32;33568;-80
2023/08/25 03:00:46;;;;;;;4.55;2.08;;;;;;;23.92;58.27;99449.66;4458400;32;32932;-80
2023/08/25 03:03:15;;;;;;;3.12;1.87;;;;;;;23.94;58.59;99454.81;4473203;32;33547;-80
2023/08/25 03:05:45;;;;;;;3.03;1.60;;;;;;;23.75;59.18;99465.88;4468717;32;34574;-80
2023/08/25 03:08:15;;;;;;;3.63;2.17;;;;;;;23.70;59.33;99474.13;4463249;32;32917;-80
2023/08/25 03:10:44;;;;;;;3.83;2.28;;;;;;;23.66;59.67;99477.97;4463262;32;33146;-80
2023/08/25 03:13:13;;;;;;;2.95;1.83;;;;;;;23.56;60.24;99469.81;4463562;32;32433;-80
2023/08/25 03:15:42;;;;;;;3.65;2.22;;;;;;;23.58;60.22;99481.16;4470051;32;34680;-80
2023/08/25 03:18:11;;;;;;;3.12;2.10;;;;;;;23.69;59.81;99484.84;4468263;32;34506;-80
2023/08/25 03:20:41;;;;;;;4.18;2.42;;;;;;;23.76;59.61;99473.72;4470775;32;33298;-80
2023/08/25 03:23:12;;;;;;;4.87;3.03;;;;;;;23.78;59.32;99476.28;4458771;32;34395;-80
2023/08/25 03:25:40;;;;;;;2.93;1.87;;;;;;;23.59;60.13;99488.13;4465244;32;36092;-80
2023/08/25 03:28:09;;;;;;;3.65;2.05;;;;;;;23.58;60.47;99490.87;4461801;32;33640;-81
2023/08/25 03:30:38;;;;;;;4.97;2.30;;;;;;;23.63;60.37;99494.91;4476480;32;33778;-80
2023/08/25 03:33:07;;;;;;;2.87;1.85;;;;;;;23.81;59.90;99500.72;4467952;32;33598;-80
2023/08/25 03:35:36;;;;;;;3.08;1.80;;;;;;;23.67;60.31;99510.59;4476265;32;34521;-80
2023/08/25 03:38:05;;;;;;;3.08;1.87;;;;;;;23.75;59.87;99516.19;4475637;32;33879;-80
2023/08/25 03:40:36;;;;;;;3.35;1.73;;;;;;;23.91;59.55;99513.31;4479391;32;33477;-79
2023/08/25 03:43:05;;;;;;;4.33;1.90;;;;;;;23.99;59.10;99516.25;4469115;32;32703;-80
2023/08/25 03:45:36;;;;;;;3.53;1.65;;;;;;;23.80;59.84;99525.53;4481723;32;33961;-80
2023/08/25 03:48:05;;;;;;;2.80;1.73;;;;;;;23.86;59.68;99532.19;4480824;32;33582;-80
2023/08/25 03:50:34;;;;;;;2.85;1.70;;;;;;;23.94;59.64;99534.28;4463865;32;33270;-80
2023/08/25 03:53:03;;;;;;;5.62;2.50;;;;;;;23.74;60.42;99623.97;4459956;32;33557;-80
2023/08/25 03:55:32;;;;;;;4.72;2.30;;;;;;;23.12;61.63;99611.38;4460233;32;33790;-80
2023/08/25 03:58:02;;;;;;;4.45;2.10;;;;;;;22.72;63.10;99578.72;4465713;32;34400;-80
2023/08/25 04:00:31;;;;;;;4.57;2.30;;;;;;;23.40;60.10;99578.56;4463187;32;33248;-80
2023/08/25 04:03:00;;;;;;;2.37;1.58;;;;;;;23.09;61.14;99555.12;4464952;32;33600;-80
2023/08/25 04:05:31;;;;;;;4.15;2.25;;;;;;;23.38;60.79;99547.88;4473561;32;34595;-80
2023/08/25 04:08:01;;;;;;;4.18;2.15;;;;;;;23.87;59.45;99548.94;4464450;32;34449;-80
2023/08/25 04:10:30;;;;;;;5.68;1.87;;;;;;;24.01;58.29;99554.94;4464170;32;33119;-80
2023/08/25 04:12:58;;;;;;;4.90;1.98;;;;;;;23.83;59.27;99540.38;4463436;32;34562;-80
2023/08/25 04:15:29;;;;;;;5.18;2.50;;;;;;;23.90;59.63;99530.19;4464352;32;34533;-80
2023/08/25 04:17:58;;;;;;;3.43;2.00;;;;;;;24.18;58.61;99529.03;4475747;32;33534;-80
2023/08/25 04:20:27;;;;;;;4.45;2.03;;;;;;;24.24;58.19;99524.16;4469046;32;34481;-81
2023/08/25 04:22:57;;;;;;;3.83;2.42;;;;;;;24.32;58.60;99512.16;4464637;32;33614;-80
2023/08/25 04:25:27;;;;;;;3.17;1.95;;;;;;;24.13;59.20;99508.16;4461606;32;34493;-80
2023/08/25 04:27:56;;;;;;;3.92;2.12;;;;;;;23.88;59.61;99490.56;4467449;32;33243;-80
2023/08/25 04:30:25;;;;;;;6.05;2.90;;;;;;;24.20;58.99;99485.56;4474461;32;33178;-79
2023/08/25 04:32:56;;;;;;;4.35;2.00;;;;;;;24.39;58.54;99478.91;4465434;32;35915;-80
2023/08/25 04:35:25;;;;;;;2.72;1.83;;;;;;;24.24;59.89;99465.84;4462083;32;33789;-80
2023/08/25 04:37:55;;;;;;;5.90;2.00;;;;;;;24.49;59.17;99467.53;4462842;32;34658;-80
2023/08/25 04:40:24;;;;;;;3.20;1.98;;;;;;;24.56;58.57;99475.87;4460582;32;33918;-80
2023/08/25 04:42:53;;;;;;;4.95;2.50;;;;;;;24.36;59.28;99473.84;4466137;32;33749;-80
2023/08/25 04:45:22;;;;;;;4.93;2.15;;;;;;;23.84;59.67;99475.81;4466440;32;34431;-80
2023/08/25 04:47:51;;;;;;;4.30;2.08;;;;;;;24.47;56.78;99473.91;4460683;32;33766;-81
2023/08/25 04:50:24;;;;;;;4.30;2.10;;;;;;;24.63;56.13;99474.47;4460651;32;31336;-80
2023/08/25 04:52:55;;;;;;;;;;;;;;;24.55;56.85;99466.25;4470478;32;34345;-80
2023/08/25 04:55:23;;;;;;;;;;;;;;;24.27;59.12;99449.69;4460141;32;33183;-80
2023/08/25 04:57:52;;;;;;;4.62;1.92;;;;;;;24.61;57.10;99441.91;4460133;32;33919;-80
2023/08/25 05:00:22;;;;;;;4.32;1.95;;;;;;;24.68;56.76;99439.66;4464272;32;33398;-80
2023/08/25 05:02:51;;;;;;;4.70;2.50;;;;;;;24.63;56.93;99431.19;4471372;32;33368;-80
2023/08/25 05:05:20;;;;;;;5.55;2.12;;;;;;;24.20;59.51;99414.00;4464586;32;34427;-80
2023/08/25 05:07:50;;;;;;;3.35;1.77;;;;;;;24.07;60.77;99397.31;4461164;32;34430;-80
2023/08/25 05:10:20;;;;;;;4.22;2.58;;;;;;;24.33;59.03;99392.75;4464762;32;32366;-80
2023/08/25 05:12:49;;;;;;;5.53;2.20;;;;;;;24.02;60.03;99387.06;4473928;32;34645;-80
2023/08/25 05:15:18;;;;;;;4.68;2.12;;;;;;;23.88;60.37;99408.44;4465909;32;34533;-81
2023/08/25 05:17:47;;;;;;;4.47;2.53;;;;;;;24.54;57.46;99442.50;4460164;32;32416;-80
2023/08/25 05:20:19;;;;;;;3.87;1.92;;;;;;;24.42;57.78;99452.16;4461556;32;33530;-80
2023/08/25 05:22:48;;;;;;;3.67;2.47;;;;;;;24.28;58.83;99443.44;4464836;32;33903;-82
2023/08/25 05:25:20;;;;;;;6.05;2.85;;;;;;;24.27;59.69;99435.59;4464873;32;33467;-82
2023/08/25 05:27:50;;;;;;;3.25;1.70;;;;;;;24.01;61.89;99445.47;4475477;32;34557;-81
2023/08/25 05:30:20;;;;;;;4.10;2.33;;;;;;;23.50;64.32;99430.53;4473174;32;33875;-81
2023/08/25 05:32:49;;;;;;;4.77;2.53;;;;;;;24.05;61.42;99417.78;4466388;32;34276;-81
2023/08/25 05:35:19;;;;;;;4.70;3.00;;;;;;;23.70;63.72;99407.91;4465889;32;34327;-79
2023/08/25 05:37:49;;;;;;;4.65;3.00;;;;;;;23.60;66.35;99391.84;4471983;32;33525;-79
2023/08/25 05:40:22;;;;;;;5.62;2.83;;;;;;;23.68;66.47;99379.84;4465531;32;33960;-79
2023/08/25 05:42:52;;;;;;;5.20;2.62;;;;;;;23.88;65.55;99389.03;4470712;32;34475;-79
2023/08/25 05:45:27;;;;;;;4.78;2.65;;;;;;;23.84;65.48;99391.87;4462315;32;34710;-80
2023/08/25 05:47:55;;;;;;;5.47;2.50;;;;;;;23.91;66.14;99397.59;4461437;32;33604;-79
2023/08/25 05:50:25;;;;;;;4.78;2.05;;;;;;;23.95;66.73;99407.03;4469182;32;33900;-79
2023/08/25 05:52:53;;;;;;;4.78;2.72;;;;;;;24.04;67.34;99413.44;4467744;32;33695;-80
2023/08/25 05:55:26;;;;;;;4.20;2.40;;;;;;;24.17;67.10;99424.84;4464380;32;34551;-80
2023/08/25 05:57:55;;;;;;;3.17;2.12;;;;;;;24.08;66.96;99428.16;4467512;32;33588;-80
2023/08/25 06:00:24;;;;;;;5.15;2.28;;;;;;;24.26;66.95;99437.41;4469085;32;34120;-80
2023/08/25 06:02:53;;;;;;;4.57;2.15;;;;;;;24.36;66.19;99442.88;4470293;32;33855;-80
2023/08/25 06:05:22;;;;;;;4.35;2.22;;;;;;;24.50;64.52;99449.84;4458615;32;33170;-80
2023/08/25 06:07:50;;;;;;;4.62;2.58;;;;;;;24.37;66.08;99447.22;4462036;32;34023;-80
2023/08/25 06:10:20;;;;;;;3.62;2.15;;;;;;;24.42;66.51;99445.06;4460659;32;33420;-80
2023/08/25 06:12:50;;;;;;;3.35;2.00;;;;;;;24.47;66.66;99442.94;4469931;32;34692;-80
2023/08/25 06:15:19;;;;;;;4.65;2.10;;;;;;;24.60;66.40;99442.88;4469415;32;33409;-80
2023/08/25 06:17:48;;;;;;;4.57;2.17;;;;;;;24.71;65.82;99452.66;4461042;32;33625;-79
2023/08/25 06:20:17;;;;;;;4.93;3.22;;;;;;;24.58;65.97;99460.72;4468002;32;33938;-80
2023/08/25 06:22:46;;;;;;;4.57;2.42;;;;;;;24.67;64.17;99456.53;4468165;32;34107;-80
2023/08/25 06:25:16;;;;;;;5.57;2.45;;;;;;;24.62;65.03;99446.28;4468624;32;33124;-80
2023/08/25 06:27:45;;;;;;;4.65;2.60;;;;;;;24.58;65.23;99444.78;4465994;32;33595;-80
2023/08/25 06:30:17;;;;;;;5.10;2.83;;;;;;;24.70;65.88;99443.88;4465798;32;33910;-80
2023/08/25 06:32:45;;;;;;;;;;;;;;;24.85;65.88;99444.50;4470124;32;33320;-80
2023/08/25 06:35:14;;;;;;;4.95;2.45;;;;;;;25.02;65.88;99448.53;4472633;32;34050;-80
2023/08/25 06:37:43;;;;;;;3.95;2.20;;;;;;;25.10;66.11;99446.13;4465836;32;34261;-80
2023/08/25 06:40:12;;;;;;;4.53;2.47;;;;;;;25.08;65.82;99426.81;4468441;32;33879;-80
2023/08/25 06:42:40;;;;;;;5.55;2.47;;;;;;;25.39;64.80;99432.41;4459849;32;33918;-80
2023/08/25 06:45:11;;;;;;;6.22;2.10;;;;;;;25.43;64.69;99439.16;4467769;32;34798;-80
2023/08/25 06:47:41;;;;;;;5.97;2.60;;;;;;;25.76;62.25;99442.78;4468267;32;33669;-80
2023/08/25 06:50:11;;;;;;;5.07;2.53;;;;;;;25.73;61.59;99438.56;4467949;32;34360;-80
2023/08/25 06:52:39;;;;;;;5.30;3.00;;;;;;;25.71;62.36;99447.63;4467691;32;34478;-81
2023/08/25 06:55:08;;;;;;;4.43;2.35;;;;;;;25.76;60.32;99440.12;4467449;32;33699;-81
2023/08/25 06:57:37;;;;;;;5.65;3.12;;;;;;;25.95;60.35;99437.69;4471789;32;33576;-81
2023/08/25 07:00:08;;;;;;;4.70;2.72;;;;;;;25.91;59.75;99438.91;4474248;32;33283;-80
2023/08/25 07:02:36;;;;;;;5.32;2.62;;;;;;;26.21;58.34;99431.19;4462031;32;34174;-81
2023/08/25 07:05:07;;;;;;;4.82;2.20;;;;;;;26.08;58.71;99431.38;4464990;32;34051;-80
2023/08/25 07:07:37;;;;;;;6.35;3.08;;;;;;;26.36;58.89;99444.09;4474202;32;33036;-81
2023/08/25 07:10:07;;;;;;;3.90;2.27;;;;;;;26.60;58.84;99445.69;4464498;32;33191;-81
2023/08/25 07:12:36;;;;;;;5.83;3.20;;;;;;;26.74;55.98;99448.03;4464367;32;34406;-80
2023/08/25 07:15:06;;;;;;;5.28;2.83;;;;;;;26.33;58.35;99443.47;4467038;32;33794;-81
2023/08/25 07:17:35;;;;;;;6.05;3.83;;;;;;;26.54;58.70;99444.41;4469247;32;35239;-81
2023/08/25 07:20:04;;;;;;;7.18;2.60;;;;;;;26.40;58.09;99452.66;4459492;32;34061;-81
2023/08/25 07:22:34;;;;;;;6.60;2.87;;;;;;;26.60;57.91;99459.84;4458565;32;33599;-81
2023/08/25 07:25:04;;;;;;;7.00;3.12;;;;;;;26.71;58.27;99456.28;4467582;32;33981;-82
2023/08/25 07:27:33;;;;;;;4.40;2.75;;;;;;;26.95;57.57;99474.66;4464873;32;33384;-81
2023/08/25 07:30:03;;;;;;;5.03;2.80;;;;;;;26.96;57.30;99464.84;4473214;32;34228;-81
2023/08/25 07:32:33;;;;;;;6.55;2.83;;;;;;;27.10;56.78;99464.50;4460426;32;34520;-82
2023/08/25 07:35:02;;;;;;;5.35;3.08;;;;;;;27.06;56.44;99468.41;4464175;32;34508;-82
2023/08/25 07:37:32;;;;;;;4.25;2.17;;;;;;;27.39;55.47;99463.84;4463684;32;35099;-81
2023/08/25 07:40:04;;;;;;;4.68;2.50;;;;;;;27.36;55.37;99469.47;4481818;32;33909;-82
2023/08/25 07:42:33;;;;;;;3.97;2.20;;;;;;;27.69;52.93;99476.34;4475842;32;33635;-82
2023/08/25 07:45:02;;;;;;;5.50;2.50;;;;;;;27.58;54.19;99469.25;4474039;32;33774;-82
2023/08/25 07:47:32;;;;;;;5.62;2.65;;;;;;;27.57;53.52;99462.25;4469173;32;34674;-82
2023/08/25 07:50:01;;;;;;;4.10;2.17;;;;;;;27.62;54.05;99457.38;4471237;32;33354;-82
2023/08/25 07:52:31;;;;;;;5.20;2.75;;;;;;;27.74;53.28;99449.25;4472953;32;34460;-82
2023/08/25 07:55:02;;;;;;;4.47;2.28;;;;;;;27.70;54.27;99435.38;4459798;32;34042;-82
2023/08/25 07:57:30;;;;;;;4.70;2.53;;;;;;;27.50;54.90;99433.59;4459043;32;32984;-82
2023/08/25 08:00:00;;;;;;;3.62;1.75;;;;;;;27.77;53.83;99438.34;4457982;32;33906;-82
2023/08/25 08:02:29;;;;;;;4.73;2.17;;;;;;;27.98;54.34;99435.59;4469680;32;33809;-82
2023/08/25 08:04:58;;;;;;;4.37;1.48;;;;;;;27.67;52.63;99425.81;4464667;32;32484;-82
2023/08/25 08:07:27;;;;;;;3.05;1.67;;;;;;;28.24;51.38;99436.75;4456228;32;34574;-82
2023/08/25 08:09:56;;;;;;;4.43;2.35;;;;;;;28.15;50.27;99431.41;4464838;32;33067;-82
2023/08/25 08:12:26;;;;;;;2.92;1.52;;;;;;;28.09;51.27;99433.62;4463285;32;33441;-82
2023/08/25 08:14:56;;;;;;;2.83;1.45;;;;;;;28.09;51.30;99432.81;4468286;32;33150;-82
2023/08/25 08:17:25;;;;;;;4.45;1.95;;;;;;;28.12;51.45;99423.69;4461036;32;33519;-82
2023/08/25 08:19:54;;;;;;;3.33;1.70;;;;;;;28.14;53.14;99430.56;4460938;32;33358;-82
2023/08/25 08:22:22;;;;;;;4.62;2.15;;;;;;;28.13;53.74;99438.72;4470250;32;34783;-82
2023/08/25 08:24:51;;;;;;;4.65;1.90;;;;;;;27.72;54.92;99435.25;4468267;32;34457;-82
2023/08/25 08:27:21;;;;;;;3.33;1.60;;;;;;;28.06;53.45;99439.25;4462475;32;33472;-82
2023/08/25 08:29:51;;;;;;;4.18;2.08;;;;;;;28.38;52.30;99437.31;4464090;32;33127;-82
2023/08/25 08:32:22;;;;;;;;;;;;;;;28.33;51.49;99436.91;4465239;32;33591;-82
2023/08/25 08:34:51;;;;;;;3.65;1.85;;;;;;;28.41;51.48;99431.69;4469864;32;33138;-82
2023/08/25 08:37:19;;;;;;;4.20;2.03;;;;;;;28.60;50.52;99441.56;4465007;32;33704;-83
2023/08/25 08:39:48;;;;;;;3.87;2.12;;;;;;;28.50;51.41;99436.22;4464081;32;33263;-82
2023/08/25 08:42:17;;;;;;;3.22;2.00;;;;;;;27.89;52.93;99426.59;4461916;32;34589;-83
2023/08/25 08:44:47;;;;;;;2.08;1.23;;;;;;;28.45;53.40;99428.63;4462023;32;33500;-82
2023/08/25 08:47:18;;;;;;;3.15;1.75;;;;;;;28.58;52.17;99432.84;4462973;32;33086;-82
2023/08/25 08:49:47;;;;;;;2.60;1.35;;;;;;;28.64;51.30;99432.28;4458525;32;33602;-82
2023/08/25 08:52:16;;;;;;;2.42;1.42;;;;;;;28.74;50.97;99437.63;4464619;32;33676;-82
2023/08/25 08:54:45;;;;;;;3.53;1.67;;;;;;;28.94;49.03;99439.25;4461322;32;34643;-82
2023/08/25 08:57:15;;;;;;;2.55;1.33;;;;;;;28.86;48.84;99442.63;4468572;32;33421;-82
2023/08/25 08:59:47;;;;;;;3.65;1.90;;;;;;;28.91;50.09;99447.56;4467392;32;34886;-82
2023/08/25 09:02:18;;;;;;;3.75;1.75;;;;;;;29.02;49.67;99446.53;4461748;32;33531;-82
2023/08/25 09:04:47;;;;;;;3.80;1.80;;;;;;;28.66;50.52;99444.50;4464291;32;34475;-82
2023/08/25 09:07:17;;;;;;;4.28;1.60;;;;;;;28.36;51.21;99433.94;4461176;32;33967;-82
2023/08/25 09:09:47;;;;;;;4.43;1.52;;;;;;;29.27;49.06;99440.59;4478185;32;32876;-82
2023/08/25 09:12:19;;;;;;;2.62;1.23;;;;;;;29.12;48.36;99434.03;4472435;32;33931;-82
2023/08/25 09:14:48;;;;;;;3.28;1.75;;;;;;;28.58;50.05;99433.69;4466611;32;33589;-82
2023/08/25 09:17:19;;;;;;;4.28;1.70;;;;;;;29.50;48.62;99434.84;4460496;32;33365;-82
2023/08/25 09:19:47;;;;;;;;;;;;;;;29.50;47.78;99434.84;4471779;32;33759;-82
2023/08/25 09:22:18;;;;;;;2.75;1.50;;;;;;;29.51;47.45;99431.22;4464397;32;34243;-82
2023/08/25 09:24:47;;;;;;;3.05;1.50;;;;;;;29.81;46.64;99423.91;4462503;32;33055;-82
2023/08/25 09:27:22;;;;;;;1.35;1.15;;;;;;;29.78;47.46;99423.19;4468286;32;34304;-82
2023/08/25 09:29:59;;;;;;;2.75;1.70;;;;;;;29.80;45.95;99422.22;4476050;32;33876;-82
2023/08/25 09:32:29;;;;;;;4.35;1.90;;;;;;;29.87;46.99;99421.47;4469002;32;33949;-82
2023/08/25 09:35:10;;;;;;;1.95;1.30;;;;;;;30.12;47.84;99417.19;4459297;32;34119;-82
2023/08/25 09:37:40;;;;;;;2.95;1.37;;;;;;;29.81;45.96;99418.56;4466262;32;33179;-82
2023/08/25 09:40:12;;;;;;;1.73;1.30;;;;;;;30.32;46.76;99422.44;4466628;32;33466;-82
2023/08/25 09:42:41;;;;;;;2.95;1.42;;;;;;;30.54;45.25;99424.66;4467460;31;32534;-82
2023/08/25 09:45:12;;;;;;;1.67;0.75;;;;;;;30.59;44.81;99421.47;4469699;32;33793;-82
2023/08/25 09:47:43;;;;;;;1.90;1.20;;;;;;;30.40;44.30;99428.72;4462375;32;34059;-83
2023/08/25 09:50:15;;;;;;;3.05;1.10;;;;;;;30.55;44.28;99420.13;4461930;32;33221;-82
2023/08/25 09:52:45;;;;;;;2.00;0.98;;;;;;;30.59;43.73;99416.13;4472634;32;33068;-82
2023/08/25 09:55:15;;;;;;;2.30;1.25;;;;;;;30.60;44.37;99417.81;4482695;32;33557;-82
2023/08/25 09:57:45;;;;;;;2.70;1.20;;;;;;;30.77;43.08;99422.28;4467093;32;33644;-82
2023/08/25 10:00:15;;;;;;;3.87;1.62;;;;;;;30.81;43.52;99404.94;4473431;31;33150;-82
2023/08/25 10:02:46;;;;;;;1.65;1.10;;;;;;;30.53;44.58;99400.69;4463726;32;33334;-81
2023/08/25 10:05:15;;;;;;;1.77;0.85;;;;;;;31.21;41.35;99400.81;4468322;32;33266;-81
2023/08/25 10:07:44;;;;;;;1.60;0.98;;;;;;;30.88;41.49;99405.19;4467927;32;33793;-82
2023/08/25 10:10:13;;;;;;;1.98;1.02;;;;;;;30.58;40.43;99401.06;4458641;32;33910;-82
2023/08/25 10:12:42;;;;;;;1.85;0.73;;;;;;;31.06;40.68;99398.91;4461072;32;33168;-82
2023/08/25 10:15:16;;;;;;;1.42;0.82;;;;;;;31.13;40.00;99397.28;4462426;32;33978;-82
2023/08/25 10:17:47;;;;;;;1.58;0.80;;;;;;;31.19;39.20;99394.78;4466888;32;34013;-82
2023/08/25 10:20:18;;;;;;;0.65;0.65;;;;;;;31.34;39.13;99396.84;4464120;32;33850;-82
2023/08/25 10:22:49;;;;;;;1.15;0.93;;;;;;;31.47;39.45;99394.59;4463327;32;32523;-82
2023/08/25 10:25:19;;;;;;;1.37;0.65;;;;;;;31.47;38.24;99399.97;4463388;32;32991;-82
2023/08/25 10:27:48;;;;;;;1.23;0.82;;;;;;;31.19;39.81;99396.63;4467165;32;34124;-83
2023/08/25 10:30:17;;;;;;;1.58;0.93;;;;;;;31.74;38.51;99403.41;4475899;32;33197;-82
2023/08/25 10:32:56;;;;;;;1.27;0.50;;;;;;;31.77;39.53;99405.75;4471029;32;34375;-83
2023/08/25 10:35:46;;;;;;;0.90;0.70;;;;;;;31.95;37.55;99403.81;4466519;32;33773;-81
2023/08/25 10:38:39;;;;;;;0.75;0.52;;;;;;;31.98;37.16;99392.75;4456913;32;33103;-83
2023/08/25 10:41:16;;;;;;;1.62;0.60;;;;;;;31.82;37.45;99396.22;4459772;32;33787;-83
2023/08/25 10:43:50;;;;;;;1.15;0.55;;;;;;;31.57;37.66;99395.31;4459896;32;34536;-82
2023/08/25 10:46:20;;;;;;;3.65;1.17;;;;;;;31.84;37.24;99396.88;4473941;32;33719;-83
2023/08/25 10:49:06;;;;;;;3.40;0.80;;;;;;;31.99;36.90;99396.28;4468410;32;33522;-82
2023/08/25 10:51:38;;;;;;;1.23;0.68;;;;;;;31.89;37.28;99391.03;4470627;32;32226;-82
2023/08/25 10:54:16;;;;;;;1.12;0.70;;;;;;;31.99;36.67;99390.91;4464992;32;34262;-83
2023/08/25 10:56:45;;;;;;;0.85;0.68;;;;;;;31.99;38.16;99396.28;4464901;32;33619;-82
2023/08/25 10:59:15;;;;;;;1.52;0.82;;;;;;;32.06;37.07;99391.91;4470328;32;33857;-82
2023/08/25 11:01:59;;;;;;;0.82;0.50;;;;;;;32.02;37.25;99390.59;4460257;32;33093;-82
2023/08/25 11:04:30;;;;;;;1.95;0.93;;;;;;;32.24;36.94;99391.78;4458804;32;33153;-82
2023/08/25 11:07:00;;;;;;;1.67;0.70;;;;;;;32.20;37.08;99385.06;4458760;32;34474;-82
2023/08/25 11:09:33;;;;;;;2.15;1.40;;;;;;;32.51;36.99;99393.31;4458281;32;34735;-82
2023/08/25 11:12:06;;;;;;;1.58;0.80;;;;;;;32.39;36.54;99390.09;4464233;32;33569;-82
2023/08/25 11:14:37;;;;;;;0.65;0.52;;;;;;;32.61;36.10;99393.16;4466532;32;33554;-82
2023/08/25 11:17:07;;;;;;;0.40;0.40;;;;;;;32.23;35.93;99384.72;4474424;32;34706;-82
2023/08/25 11:19:39;;;;;;;1.58;0.90;;;;;;;32.76;35.23;99387.91;4475127;32;32785;-82
2023/08/25 11:22:10;;;;;;;1.70;0.98;;;;;;;32.82;35.65;99389.94;4478971;32;33026;-82
2023/08/25 11:24:40;;;;;;;1.62;0.85;;;;;;;32.99;34.91;99379.97;4481333;32;33528;-82
2023/08/25 11:27:10;;;;;;;1.17;0.60;;;;;;;32.93;34.10;99386.88;4475958;32;33614;-82
2023/08/25 11:29:39;;;;;;;1.02;0.70;;;;;;;32.86;34.24;99385.88;4467758;32;33728;-83
2023/08/25 11:32:11;;;;;;;1.40;0.60;;;;;;;32.85;34.49;99384.22;4468287;32;33931;-83
2023/08/25 11:34:41;;;;;;;0.55;0.40;;;;;;;33.08;35.08;99377.13;4464860;32;33105;-83
2023/08/25 11:37:11;;;;;;;;;;;;;;;33.18;33.39;99378.75;4461954;32;34777;-83
2023/08/25 11:39:42;;;;;;;2.10;0.95;;;;;;;33.23;33.30;99384.47;4475155;32;33701;-83
2023/08/25 11:42:11;;;;;;;1.73;0.98;;;;;;;33.01;34.41;99378.81;4470958;32;33990;-82
2023/08/25 11:44:42;;;;;;;0.93;0.50;;;;;;;33.14;33.44;99379.09;4470251;32;33672;-82
2023/08/25 11:47:11;;;;;;;1.42;0.70;;;;;;;33.21;34.12;99378.44;4478334;32;34940;-82